sensor_id;sensor_type;location;lat;lon;timestamp;temperature;humidity
11491;DHT22;5802;52.832;4.758;2023-04-12T00:00:14;23.70;39.70
11491;DHT22;5802;52.832;4.758;2023-04-12T00:02:42;23.70;39.60
11491;DHT22;5802;52.832;4.758;2023-04-12T00:05:10;23.70;39.60
11491;DHT22;5802;52.832;4.758;2023-04-12T00:07:38;23.70;39.60
11491;DHT22;5802;52.832;4.758;2023-04-12T00:10:08;23.70;39.60
11491;DHT22;5802;52.832;4.758;2023-04-12T00:12:34;23.70;39.60
11491;DHT22;5802;52.832;4.758;2023-04-12T00:15:01;23.70;39.60
11491;DHT22;5802;52.832;4.758;2023-04-12T00:17:28;23.70;39.60
11491;DHT22;5802;52.832;4.758;2023-04-12T00:19:54;23.70;39.60
11491;DHT22;5802;52.832;4.758;2023-04-12T00:22:22;23.70;39.60
11491;DHT22;5802;52.832;4.758;2023-04-12T00:24:48;23.70;39.60
11491;DHT22;5802;52.832;4.758;2023-04-12T00:27:16;23.70;39.60
11491;DHT22;5802;52.832;4.758;2023-04-12T00:29:43;23.70;39.60
11491;DHT22;5802;52.832;4.758;2023-04-12T00:32:10;23.70;39.60
11491;DHT22;5802;52.832;4.758;2023-04-12T00:34:36;23.70;39.60
11491;DHT22;5802;52.832;4.758;2023-04-12T00:37:03;23.70;39.60
11491;DHT22;5802;52.832;4.758;2023-04-12T00:39:30;23.70;39.60
11491;DHT22;5802;52.832;4.758;2023-04-12T00:41:56;23.70;39.60
11491;DHT22;5802;52.832;4.758;2023-04-12T00:44:24;23.70;39.60
11491;DHT22;5802;52.832;4.758;2023-04-12T00:46:51;23.70;39.60
11491;DHT22;5802;52.832;4.758;2023-04-12T00:49:18;23.70;39.60
11491;DHT22;5802;52.832;4.758;2023-04-12T00:51:45;23.70;39.60
11491;DHT22;5802;52.832;4.758;2023-04-12T00:54:12;23.70;39.70
11491;DHT22;5802;52.832;4.758;2023-04-12T00:56:42;23.70;39.70
11491;DHT22;5802;52.832;4.758;2023-04-12T00:59:09;23.70;39.70
11491;DHT22;5802;52.832;4.758;2023-04-12T01:01:37;23.70;39.70
11491;DHT22;5802;52.832;4.758;2023-04-12T01:04:05;23.70;39.70
11491;DHT22;5802;52.832;4.758;2023-04-12T01:06:40;23.70;39.70
11491;DHT22;5802;52.832;4.758;2023-04-12T01:09:18;23.70;39.70
11491;DHT22;5802;52.832;4.758;2023-04-12T01:11:50;23.70;39.70
11491;DHT22;5802;52.832;4.758;2023-04-12T01:14:28;23.70;39.70
11491;DHT22;5802;52.832;4.758;2023-04-12T01:17:02;23.70;39.70
11491;DHT22;5802;52.832;4.758;2023-04-12T01:19:36;23.70;39.70
11491;DHT22;5802;52.832;4.758;2023-04-12T01:22:12;23.70;39.80
11491;DHT22;5802;52.832;4.758;2023-04-12T01:24:50;23.70;39.70
11491;DHT22;5802;52.832;4.758;2023-04-12T01:27:35;23.70;39.70
11491;DHT22;5802;52.832;4.758;2023-04-12T01:30:05;23.60;39.70
11491;DHT22;5802;52.832;4.758;2023-04-12T01:32:34;23.60;39.70
11491;DHT22;5802;52.832;4.758;2023-04-12T01:35:03;23.60;39.70
11491;DHT22;5802;52.832;4.758;2023-04-12T01:37:32;23.60;39.70
11491;DHT22;5802;52.832;4.758;2023-04-12T01:39:59;23.60;39.70
11491;DHT22;5802;52.832;4.758;2023-04-12T01:42:26;23.60;39.70
11491;DHT22;5802;52.832;4.758;2023-04-12T01:44:54;23.60;39.70
11491;DHT22;5802;52.832;4.758;2023-04-12T01:47:21;23.60;39.70
11491;DHT22;5802;52.832;4.758;2023-04-12T01:49:54;23.60;39.70
11491;DHT22;5802;52.832;4.758;2023-04-12T01:52:23;23.60;39.70
11491;DHT22;5802;52.832;4.758;2023-04-12T01:54:56;23.60;39.70
11491;DHT22;5802;52.832;4.758;2023-04-12T01:57:24;23.60;39.80
11491;DHT22;5802;52.832;4.758;2023-04-12T01:59:54;23.60;39.70
11491;DHT22;5802;52.832;4.758;2023-04-12T02:02:22;23.60;39.80
11491;DHT22;5802;52.832;4.758;2023-04-12T02:04:50;23.60;39.70
11491;DHT22;5802;52.832;4.758;2023-04-12T02:07:18;23.60;39.80
11491;DHT22;5802;52.832;4.758;2023-04-12T02:09:45;23.60;39.80
11491;DHT22;5802;52.832;4.758;2023-04-12T02:12:12;23.60;39.70
11491;DHT22;5802;52.832;4.758;2023-04-12T02:14:39;23.60;39.80
11491;DHT22;5802;52.832;4.758;2023-04-12T02:17:07;23.60;39.80
11491;DHT22;5802;52.832;4.758;2023-04-12T02:19:34;23.60;39.70
11491;DHT22;5802;52.832;4.758;2023-04-12T02:22:00;23.60;39.80
11491;DHT22;5802;52.832;4.758;2023-04-12T02:24:28;23.60;39.80
11491;DHT22;5802;52.832;4.758;2023-04-12T02:26:57;23.60;39.80
11491;DHT22;5802;52.832;4.758;2023-04-12T02:29:23;23.60;39.80
11491;DHT22;5802;52.832;4.758;2023-04-12T02:31:51;23.60;39.80
11491;DHT22;5802;52.832;4.758;2023-04-12T02:34:19;23.60;39.90
11491;DHT22;5802;52.832;4.758;2023-04-12T02:36:47;23.60;39.80
11491;DHT22;5802;52.832;4.758;2023-04-12T02:39:14;23.60;39.70
11491;DHT22;5802;52.832;4.758;2023-04-12T02:41:42;23.60;39.70
11491;DHT22;5802;52.832;4.758;2023-04-12T02:44:09;23.60;39.70
11491;DHT22;5802;52.832;4.758;2023-04-12T02:46:37;23.60;39.70
11491;DHT22;5802;52.832;4.758;2023-04-12T02:49:03;23.60;39.70
11491;DHT22;5802;52.832;4.758;2023-04-12T02:51:31;23.60;39.70
11491;DHT22;5802;52.832;4.758;2023-04-12T02:53:58;23.60;39.70
11491;DHT22;5802;52.832;4.758;2023-04-12T02:56:25;23.60;40.40
11491;DHT22;5802;52.832;4.758;2023-04-12T02:58:54;23.60;39.70
11491;DHT22;5802;52.832;4.758;2023-04-12T03:01:21;23.60;39.70
11491;DHT22;5802;52.832;4.758;2023-04-12T03:03:47;23.60;39.70
11491;DHT22;5802;52.832;4.758;2023-04-12T03:06:14;23.60;39.70
11491;DHT22;5802;52.832;4.758;2023-04-12T03:08:42;23.60;39.70
11491;DHT22;5802;52.832;4.758;2023-04-12T03:11:09;23.60;39.70
11491;DHT22;5802;52.832;4.758;2023-04-12T03:13:35;23.60;39.80
11491;DHT22;5802;52.832;4.758;2023-04-12T03:16:19;23.60;39.80
11491;DHT22;5802;52.832;4.758;2023-04-12T03:18:47;23.60;39.80
11491;DHT22;5802;52.832;4.758;2023-04-12T03:21:14;23.60;39.80
11491;DHT22;5802;52.832;4.758;2023-04-12T03:23:42;23.60;39.80
11491;DHT22;5802;52.832;4.758;2023-04-12T03:26:09;23.60;39.80
11491;DHT22;5802;52.832;4.758;2023-04-12T03:28:36;23.50;39.80
11491;DHT22;5802;52.832;4.758;2023-04-12T03:31:02;23.50;39.70
11491;DHT22;5802;52.832;4.758;2023-04-12T03:33:29;23.60;39.80
11491;DHT22;5802;52.832;4.758;2023-04-12T03:35:56;23.60;39.80
11491;DHT22;5802;52.832;4.758;2023-04-12T03:38:23;23.60;40.10
11491;DHT22;5802;52.832;4.758;2023-04-12T03:40:51;23.60;39.80
11491;DHT22;5802;52.832;4.758;2023-04-12T03:43:17;23.60;39.80
11491;DHT22;5802;52.832;4.758;2023-04-12T03:45:44;23.50;39.70
11491;DHT22;5802;52.832;4.758;2023-04-12T03:48:10;23.50;39.70
11491;DHT22;5802;52.832;4.758;2023-04-12T03:50:37;23.50;39.70
11491;DHT22;5802;52.832;4.758;2023-04-12T03:53:09;23.50;39.70
11491;DHT22;5802;52.832;4.758;2023-04-12T03:55:35;23.50;39.70
11491;DHT22;5802;52.832;4.758;2023-04-12T03:58:04;23.50;39.80
11491;DHT22;5802;52.832;4.758;2023-04-12T04:00:31;23.50;39.70
11491;DHT22;5802;52.832;4.758;2023-04-12T04:02:57;23.50;39.70
11491;DHT22;5802;52.832;4.758;2023-04-12T04:05:27;23.50;39.70
11491;DHT22;5802;52.832;4.758;2023-04-12T04:07:54;23.50;39.70
11491;DHT22;5802;52.832;4.758;2023-04-12T04:10:20;23.50;39.70
11491;DHT22;5802;52.832;4.758;2023-04-12T04:12:47;23.50;39.70
11491;DHT22;5802;52.832;4.758;2023-04-12T04:15:15;23.50;39.80
11491;DHT22;5802;52.832;4.758;2023-04-12T04:17:42;23.50;39.80
11491;DHT22;5802;52.832;4.758;2023-04-12T04:20:09;23.50;39.80
11491;DHT22;5802;52.832;4.758;2023-04-12T04:22:38;23.50;39.80
11491;DHT22;5802;52.832;4.758;2023-04-12T04:25:05;23.50;39.80
11491;DHT22;5802;52.832;4.758;2023-04-12T04:27:32;23.50;39.90
11491;DHT22;5802;52.832;4.758;2023-04-12T04:30:03;23.50;39.80
11491;DHT22;5802;52.832;4.758;2023-04-12T04:32:32;23.50;39.80
11491;DHT22;5802;52.832;4.758;2023-04-12T04:34:59;23.50;39.80
11491;DHT22;5802;52.832;4.758;2023-04-12T04:37:25;23.50;39.80
11491;DHT22;5802;52.832;4.758;2023-04-12T04:39:52;23.50;39.80
11491;DHT22;5802;52.832;4.758;2023-04-12T04:42:19;23.50;39.90
11491;DHT22;5802;52.832;4.758;2023-04-12T04:44:46;23.50;39.80
11491;DHT22;5802;52.832;4.758;2023-04-12T04:47:15;23.50;39.80
11491;DHT22;5802;52.832;4.758;2023-04-12T04:49:44;23.50;39.80
11491;DHT22;5802;52.832;4.758;2023-04-12T04:52:13;23.50;39.80
11491;DHT22;5802;52.832;4.758;2023-04-12T04:54:39;23.50;40.60
11491;DHT22;5802;52.832;4.758;2023-04-12T04:57:06;23.50;39.90
11491;DHT22;5802;52.832;4.758;2023-04-12T04:59:35;23.50;39.90
11491;DHT22;5802;52.832;4.758;2023-04-12T05:02:02;23.50;39.90
11491;DHT22;5802;52.832;4.758;2023-04-12T05:04:29;23.50;39.80
11491;DHT22;5802;52.832;4.758;2023-04-12T05:06:57;23.50;39.80
11491;DHT22;5802;52.832;4.758;2023-04-12T05:09:23;23.50;39.90
11491;DHT22;5802;52.832;4.758;2023-04-12T05:11:50;23.50;39.90
11491;DHT22;5802;52.832;4.758;2023-04-12T05:14:17;23.50;39.80
11491;DHT22;5802;52.832;4.758;2023-04-12T05:16:43;23.50;39.90
11491;DHT22;5802;52.832;4.758;2023-04-12T05:19:10;23.50;39.80
11491;DHT22;5802;52.832;4.758;2023-04-12T05:21:37;23.50;39.80
11491;DHT22;5802;52.832;4.758;2023-04-12T05:24:06;23.40;39.80
11491;DHT22;5802;52.832;4.758;2023-04-12T05:26:32;23.50;39.80
11491;DHT22;5802;52.832;4.758;2023-04-12T05:28:59;23.50;39.80
11491;DHT22;5802;52.832;4.758;2023-04-12T05:31:26;23.50;39.80
11491;DHT22;5802;52.832;4.758;2023-04-12T05:33:53;23.50;39.80
11491;DHT22;5802;52.832;4.758;2023-04-12T05:36:20;23.50;39.80
11491;DHT22;5802;52.832;4.758;2023-04-12T05:38:46;23.50;39.90
11491;DHT22;5802;52.832;4.758;2023-04-12T05:41:14;23.50;39.90
11491;DHT22;5802;52.832;4.758;2023-04-12T05:43:43;23.50;39.80
11491;DHT22;5802;52.832;4.758;2023-04-12T05:46:09;23.50;39.80
11491;DHT22;5802;52.832;4.758;2023-04-12T05:48:37;23.50;39.80
11491;DHT22;5802;52.832;4.758;2023-04-12T05:51:04;23.50;39.80
11491;DHT22;5802;52.832;4.758;2023-04-12T05:53:31;23.50;39.80
11491;DHT22;5802;52.832;4.758;2023-04-12T05:55:57;23.50;39.70
11491;DHT22;5802;52.832;4.758;2023-04-12T05:58:25;23.50;39.80
11491;DHT22;5802;52.832;4.758;2023-04-12T06:00:52;23.50;39.80
11491;DHT22;5802;52.832;4.758;2023-04-12T06:03:20;23.50;39.80
11491;DHT22;5802;52.832;4.758;2023-04-12T06:05:48;23.50;39.90
11491;DHT22;5802;52.832;4.758;2023-04-12T06:08:15;23.50;39.90
11491;DHT22;5802;52.832;4.758;2023-04-12T06:10:42;23.50;39.90
11491;DHT22;5802;52.832;4.758;2023-04-12T06:13:09;23.50;39.90
11491;DHT22;5802;52.832;4.758;2023-04-12T06:15:37;23.50;40.00
11491;DHT22;5802;52.832;4.758;2023-04-12T06:18:05;23.50;39.90
11491;DHT22;5802;52.832;4.758;2023-04-12T06:20:32;23.50;39.90
11491;DHT22;5802;52.832;4.758;2023-04-12T06:22:59;23.50;39.90
11491;DHT22;5802;52.832;4.758;2023-04-12T06:25:25;23.50;40.00
11491;DHT22;5802;52.832;4.758;2023-04-12T06:27:52;23.60;40.00
11491;DHT22;5802;52.832;4.758;2023-04-12T06:30:19;23.50;39.80
11491;DHT22;5802;52.832;4.758;2023-04-12T06:32:47;23.60;39.90
11491;DHT22;5802;52.832;4.758;2023-04-12T06:35:13;23.60;39.90
11491;DHT22;5802;52.832;4.758;2023-04-12T06:37:41;23.60;39.90
11491;DHT22;5802;52.832;4.758;2023-04-12T06:40:08;23.60;39.90
11491;DHT22;5802;52.832;4.758;2023-04-12T06:42:37;23.60;39.90
11491;DHT22;5802;52.832;4.758;2023-04-12T06:45:04;23.60;39.90
11491;DHT22;5802;52.832;4.758;2023-04-12T06:47:31;23.60;39.90
11491;DHT22;5802;52.832;4.758;2023-04-12T06:49:59;23.60;39.90
11491;DHT22;5802;52.832;4.758;2023-04-12T06:52:27;23.60;40.00
11491;DHT22;5802;52.832;4.758;2023-04-12T06:54:54;23.60;39.90
11491;DHT22;5802;52.832;4.758;2023-04-12T06:57:21;23.60;39.90
11491;DHT22;5802;52.832;4.758;2023-04-12T06:59:48;23.60;39.90
11491;DHT22;5802;52.832;4.758;2023-04-12T07:02:15;23.60;39.90
11491;DHT22;5802;52.832;4.758;2023-04-12T07:04:41;23.60;39.90
11491;DHT22;5802;52.832;4.758;2023-04-12T07:07:09;23.60;39.90
11491;DHT22;5802;52.832;4.758;2023-04-12T07:09:36;23.60;40.00
11491;DHT22;5802;52.832;4.758;2023-04-12T07:12:03;23.60;39.90
11491;DHT22;5802;52.832;4.758;2023-04-12T07:14:29;23.60;39.90
11491;DHT22;5802;52.832;4.758;2023-04-12T07:16:56;23.60;39.90
11491;DHT22;5802;52.832;4.758;2023-04-12T07:19:23;23.70;39.90
11491;DHT22;5802;52.832;4.758;2023-04-12T07:21:49;23.70;39.90
11491;DHT22;5802;52.832;4.758;2023-04-12T07:24:17;23.70;39.90
11491;DHT22;5802;52.832;4.758;2023-04-12T07:26:44;23.70;39.90
11491;DHT22;5802;52.832;4.758;2023-04-12T07:29:11;23.70;39.80
11491;DHT22;5802;52.832;4.758;2023-04-12T07:31:37;23.80;39.80
11491;DHT22;5802;52.832;4.758;2023-04-12T07:34:04;23.80;39.70
11491;DHT22;5802;52.832;4.758;2023-04-12T07:36:31;23.90;39.60
11491;DHT22;5802;52.832;4.758;2023-04-12T07:38:58;24.00;39.60
11491;DHT22;5802;52.832;4.758;2023-04-12T07:41:26;24.00;39.60
11491;DHT22;5802;52.832;4.758;2023-04-12T07:43:53;24.10;39.50
11491;DHT22;5802;52.832;4.758;2023-04-12T07:46:19;24.10;39.40
11491;DHT22;5802;52.832;4.758;2023-04-12T07:48:46;24.20;39.30
11491;DHT22;5802;52.832;4.758;2023-04-12T07:51:13;24.30;39.30
11491;DHT22;5802;52.832;4.758;2023-04-12T07:53:39;24.30;39.10
11491;DHT22;5802;52.832;4.758;2023-04-12T07:56:07;24.40;39.20
11491;DHT22;5802;52.832;4.758;2023-04-12T07:58:35;24.40;39.00
11491;DHT22;5802;52.832;4.758;2023-04-12T08:01:01;24.50;39.00
11491;DHT22;5802;52.832;4.758;2023-04-12T08:03:28;24.50;38.90
11491;DHT22;5802;52.832;4.758;2023-04-12T08:05:55;24.60;38.90
11491;DHT22;5802;52.832;4.758;2023-04-12T08:08:22;24.60;38.90
11491;DHT22;5802;52.832;4.758;2023-04-12T08:10:49;24.70;38.90
11491;DHT22;5802;52.832;4.758;2023-04-12T08:13:16;24.70;38.80
11491;DHT22;5802;52.832;4.758;2023-04-12T08:15:45;24.70;38.70
11491;DHT22;5802;52.832;4.758;2023-04-12T08:18:12;24.80;38.60
11491;DHT22;5802;52.832;4.758;2023-04-12T08:20:39;24.80;38.40
11491;DHT22;5802;52.832;4.758;2023-04-12T08:23:05;24.80;38.30
11491;DHT22;5802;52.832;4.758;2023-04-12T08:25:32;24.90;38.30
11491;DHT22;5802;52.832;4.758;2023-04-12T08:27:59;24.90;38.30
11491;DHT22;5802;52.832;4.758;2023-04-12T08:30:26;24.90;38.30
11491;DHT22;5802;52.832;4.758;2023-04-12T08:32:54;25.00;38.40
11491;DHT22;5802;52.832;4.758;2023-04-12T08:35:21;25.00;38.30
11491;DHT22;5802;52.832;4.758;2023-04-12T08:37:48;25.00;38.20
11491;DHT22;5802;52.832;4.758;2023-04-12T08:40:15;25.00;38.30
11491;DHT22;5802;52.832;4.758;2023-04-12T08:42:42;25.10;38.30
11491;DHT22;5802;52.832;4.758;2023-04-12T08:45:10;25.10;38.30
11491;DHT22;5802;52.832;4.758;2023-04-12T08:47:38;25.10;38.30
11491;DHT22;5802;52.832;4.758;2023-04-12T08:50:08;25.20;38.30
11491;DHT22;5802;52.832;4.758;2023-04-12T08:52:36;25.20;38.20
11491;DHT22;5802;52.832;4.758;2023-04-12T08:55:03;25.20;38.10
11491;DHT22;5802;52.832;4.758;2023-04-12T08:57:30;25.20;38.10
11491;DHT22;5802;52.832;4.758;2023-04-12T08:59:58;25.30;38.10
11491;DHT22;5802;52.832;4.758;2023-04-12T09:02:26;25.30;38.10
11491;DHT22;5802;52.832;4.758;2023-04-12T09:04:53;25.30;38.10
11491;DHT22;5802;52.832;4.758;2023-04-12T09:07:22;25.30;38.10
11491;DHT22;5802;52.832;4.758;2023-04-12T09:09:56;25.40;38.10
11491;DHT22;5802;52.832;4.758;2023-04-12T09:12:23;25.40;38.10
11491;DHT22;5802;52.832;4.758;2023-04-12T09:15:05;25.40;38.10
11491;DHT22;5802;52.832;4.758;2023-04-12T09:17:38;25.40;38.20
11491;DHT22;5802;52.832;4.758;2023-04-12T09:20:23;25.50;38.10
11491;DHT22;5802;52.832;4.758;2023-04-12T09:22:51;25.60;38.10
11491;DHT22;5802;52.832;4.758;2023-04-12T09:25:35;25.60;38.10
11491;DHT22;5802;52.832;4.758;2023-04-12T09:28:03;25.60;38.10
11491;DHT22;5802;52.832;4.758;2023-04-12T09:30:40;25.60;38.10
11491;DHT22;5802;52.832;4.758;2023-04-12T09:33:11;25.70;38.10
11491;DHT22;5802;52.832;4.758;2023-04-12T09:35:38;25.80;38.10
11491;DHT22;5802;52.832;4.758;2023-04-12T09:38:07;25.80;38.10
11491;DHT22;5802;52.832;4.758;2023-04-12T09:40:35;25.90;38.10
11491;DHT22;5802;52.832;4.758;2023-04-12T09:43:02;25.90;37.90
11491;DHT22;5802;52.832;4.758;2023-04-12T09:45:33;25.90;38.00
11491;DHT22;5802;52.832;4.758;2023-04-12T09:48:01;26.00;38.10
11491;DHT22;5802;52.832;4.758;2023-04-12T09:50:30;26.00;38.10
11491;DHT22;5802;52.832;4.758;2023-04-12T09:52:58;26.00;38.10
11491;DHT22;5802;52.832;4.758;2023-04-12T09:55:28;26.10;38.10
11491;DHT22;5802;52.832;4.758;2023-04-12T09:58:00;26.10;38.20
11491;DHT22;5802;52.832;4.758;2023-04-12T10:00:27;26.10;38.20
11491;DHT22;5802;52.832;4.758;2023-04-12T10:02:56;26.20;38.30
11491;DHT22;5802;52.832;4.758;2023-04-12T10:05:23;26.20;38.30
11491;DHT22;5802;52.832;4.758;2023-04-12T10:07:51;26.20;38.30
11491;DHT22;5802;52.832;4.758;2023-04-12T10:10:18;26.20;38.30
11491;DHT22;5802;52.832;4.758;2023-04-12T10:12:48;26.20;38.30
11491;DHT22;5802;52.832;4.758;2023-04-12T10:15:15;26.20;38.20
11491;DHT22;5802;52.832;4.758;2023-04-12T10:17:43;26.20;38.20
11491;DHT22;5802;52.832;4.758;2023-04-12T10:20:11;26.20;38.20
11491;DHT22;5802;52.832;4.758;2023-04-12T10:22:39;26.20;38.10
11491;DHT22;5802;52.832;4.758;2023-04-12T10:25:09;26.10;38.10
11491;DHT22;5802;52.832;4.758;2023-04-12T10:27:39;26.20;38.20
11491;DHT22;5802;52.832;4.758;2023-04-12T10:30:26;26.20;38.10
11491;DHT22;5802;52.832;4.758;2023-04-12T10:33:12;26.20;38.10
11491;DHT22;5802;52.832;4.758;2023-04-12T10:35:51;26.20;38.20
11491;DHT22;5802;52.832;4.758;2023-04-12T10:38:18;26.20;38.30
11491;DHT22;5802;52.832;4.758;2023-04-12T10:41:14;26.20;38.30
11491;DHT22;5802;52.832;4.758;2023-04-12T10:43:42;26.20;38.30
11491;DHT22;5802;52.832;4.758;2023-04-12T10:49:11;26.20;38.40
11491;DHT22;5802;52.832;4.758;2023-04-12T10:51:39;26.20;38.40
11491;DHT22;5802;52.832;4.758;2023-04-12T10:54:31;26.30;38.50
11491;DHT22;5802;52.832;4.758;2023-04-12T10:57:00;26.30;38.50
11491;DHT22;5802;52.832;4.758;2023-04-12T10:59:49;26.30;38.50
11491;DHT22;5802;52.832;4.758;2023-04-12T11:02:17;26.30;38.60
11491;DHT22;5802;52.832;4.758;2023-04-12T11:05:06;26.30;38.60
11491;DHT22;5802;52.832;4.758;2023-04-12T11:07:40;26.30;38.60
11491;DHT22;5802;52.832;4.758;2023-04-12T11:10:14;26.30;38.70
11491;DHT22;5802;52.832;4.758;2023-04-12T11:12:47;26.30;38.80
11491;DHT22;5802;52.832;4.758;2023-04-12T11:15:13;26.30;39.00
11491;DHT22;5802;52.832;4.758;2023-04-12T11:17:41;26.30;39.10
11491;DHT22;5802;52.832;4.758;2023-04-12T11:20:11;26.30;39.00
11491;DHT22;5802;52.832;4.758;2023-04-12T11:22:38;26.30;38.90
11491;DHT22;5802;52.832;4.758;2023-04-12T11:25:06;26.30;38.80
11491;DHT22;5802;52.832;4.758;2023-04-12T11:27:33;26.20;38.80
11491;DHT22;5802;52.832;4.758;2023-04-12T11:30:02;26.20;38.80
11491;DHT22;5802;52.832;4.758;2023-04-12T11:32:30;26.30;38.80
11491;DHT22;5802;52.832;4.758;2023-04-12T11:34:58;26.30;38.80
11491;DHT22;5802;52.832;4.758;2023-04-12T11:37:26;26.40;38.80
11491;DHT22;5802;52.832;4.758;2023-04-12T11:39:56;26.40;38.70
11491;DHT22;5802;52.832;4.758;2023-04-12T11:42:24;26.40;38.70
11491;DHT22;5802;52.832;4.758;2023-04-12T11:44:51;26.50;38.70
11491;DHT22;5802;52.832;4.758;2023-04-12T11:47:19;26.50;38.60
11491;DHT22;5802;52.832;4.758;2023-04-12T11:49:49;26.50;38.50
11491;DHT22;5802;52.832;4.758;2023-04-12T11:52:17;26.50;38.40
11491;DHT22;5802;52.832;4.758;2023-04-12T11:54:47;26.50;38.40
11491;DHT22;5802;52.832;4.758;2023-04-12T11:57:15;26.60;38.50
11491;DHT22;5802;52.832;4.758;2023-04-12T11:59:45;26.50;38.30
11491;DHT22;5802;52.832;4.758;2023-04-12T12:02:13;26.60;38.40
11491;DHT22;5802;52.832;4.758;2023-04-12T12:04:42;26.60;38.40
11491;DHT22;5802;52.832;4.758;2023-04-12T12:07:10;26.60;38.30
11491;DHT22;5802;52.832;4.758;2023-04-12T12:09:38;26.60;38.30
11491;DHT22;5802;52.832;4.758;2023-04-12T12:12:07;26.60;38.20
11491;DHT22;5802;52.832;4.758;2023-04-12T12:14:35;26.60;38.00
11491;DHT22;5802;52.832;4.758;2023-04-12T12:17:08;26.60;38.00
11491;DHT22;5802;52.832;4.758;2023-04-12T12:19:37;26.60;37.50
11491;DHT22;5802;52.832;4.758;2023-04-12T12:22:09;26.60;37.30
11491;DHT22;5802;52.832;4.758;2023-04-12T12:24:37;26.60;36.70
11491;DHT22;5802;52.832;4.758;2023-04-12T12:27:03;26.60;36.00
11491;DHT22;5802;52.832;4.758;2023-04-12T12:29:35;26.60;35.60
11491;DHT22;5802;52.832;4.758;2023-04-12T12:32:08;26.50;35.20
11491;DHT22;5802;52.832;4.758;2023-04-12T12:34:35;26.50;35.40
11491;DHT22;5802;52.832;4.758;2023-04-12T12:37:02;26.50;35.70
11491;DHT22;5802;52.832;4.758;2023-04-12T12:39:31;26.50;36.00
11491;DHT22;5802;52.832;4.758;2023-04-12T12:41:58;26.50;36.20
11491;DHT22;5802;52.832;4.758;2023-04-12T12:44:26;26.40;36.20
11491;DHT22;5802;52.832;4.758;2023-04-12T12:46:54;26.40;36.20
11491;DHT22;5802;52.832;4.758;2023-04-12T12:49:20;26.40;36.00
11491;DHT22;5802;52.832;4.758;2023-04-12T12:51:47;26.30;36.00
11491;DHT22;5802;52.832;4.758;2023-04-12T12:54:15;26.30;36.10
11491;DHT22;5802;52.832;4.758;2023-04-12T12:56:42;26.30;36.20
11491;DHT22;5802;52.832;4.758;2023-04-12T12:59:09;26.20;36.30
11491;DHT22;5802;52.832;4.758;2023-04-12T13:01:36;26.20;36.40
11491;DHT22;5802;52.832;4.758;2023-04-12T13:04:04;26.20;36.50
11491;DHT22;5802;52.832;4.758;2023-04-12T13:06:30;26.20;36.60
11491;DHT22;5802;52.832;4.758;2023-04-12T13:08:57;26.10;36.50
11491;DHT22;5802;52.832;4.758;2023-04-12T13:11:24;26.10;36.30
11491;DHT22;5802;52.832;4.758;2023-04-12T13:13:50;26.10;36.50
11491;DHT22;5802;52.832;4.758;2023-04-12T13:16:17;26.00;36.50
11491;DHT22;5802;52.832;4.758;2023-04-12T13:18:44;26.00;36.60
11491;DHT22;5802;52.832;4.758;2023-04-12T13:21:12;26.00;36.70
11491;DHT22;5802;52.832;4.758;2023-04-12T13:23:38;25.90;36.70
11491;DHT22;5802;52.832;4.758;2023-04-12T13:26:05;25.90;36.70
11491;DHT22;5802;52.832;4.758;2023-04-12T13:28:32;25.90;36.70
11491;DHT22;5802;52.832;4.758;2023-04-12T13:30:59;25.90;36.70
11491;DHT22;5802;52.832;4.758;2023-04-12T13:33:26;25.90;36.60
11491;DHT22;5802;52.832;4.758;2023-04-12T13:35:52;25.90;36.60
11491;DHT22;5802;52.832;4.758;2023-04-12T13:38:20;25.90;36.70
11491;DHT22;5802;52.832;4.758;2023-04-12T13:40:47;25.90;36.70
11491;DHT22;5802;52.832;4.758;2023-04-12T13:43:17;25.90;36.70
11491;DHT22;5802;52.832;4.758;2023-04-12T13:45:44;25.90;36.60
11491;DHT22;5802;52.832;4.758;2023-04-12T13:48:10;25.90;36.40
11491;DHT22;5802;52.832;4.758;2023-04-12T13:50:37;25.90;36.50
11491;DHT22;5802;52.832;4.758;2023-04-12T13:53:04;26.00;36.60
11491;DHT22;5802;52.832;4.758;2023-04-12T13:55:32;26.00;36.60
11491;DHT22;5802;52.832;4.758;2023-04-12T13:57:59;26.00;36.60
11491;DHT22;5802;52.832;4.758;2023-04-12T14:00:26;26.00;36.60
11491;DHT22;5802;52.832;4.758;2023-04-12T14:02:52;26.10;36.70
11491;DHT22;5802;52.832;4.758;2023-04-12T14:05:19;26.10;36.60
11491;DHT22;5802;52.832;4.758;2023-04-12T14:07:47;26.10;36.50
11491;DHT22;5802;52.832;4.758;2023-04-12T14:10:14;26.20;36.50
11491;DHT22;5802;52.832;4.758;2023-04-12T14:12:42;26.20;36.50
11491;DHT22;5802;52.832;4.758;2023-04-12T14:15:09;26.20;36.50
11491;DHT22;5802;52.832;4.758;2023-04-12T14:17:35;26.10;36.40
11491;DHT22;5802;52.832;4.758;2023-04-12T14:20:03;26.10;36.60
11491;DHT22;5802;52.832;4.758;2023-04-12T14:22:31;26.10;36.50
11491;DHT22;5802;52.832;4.758;2023-04-12T14:24:58;26.10;36.50
11491;DHT22;5802;52.832;4.758;2023-04-12T14:27:25;26.10;36.60
11491;DHT22;5802;52.832;4.758;2023-04-12T14:29:53;26.10;36.50
11491;DHT22;5802;52.832;4.758;2023-04-12T14:32:20;26.10;36.60
11491;DHT22;5802;52.832;4.758;2023-04-12T14:34:47;26.10;36.60
11491;DHT22;5802;52.832;4.758;2023-04-12T14:37:13;26.10;36.70
11491;DHT22;5802;52.832;4.758;2023-04-12T14:39:40;26.10;36.80
11491;DHT22;5802;52.832;4.758;2023-04-12T14:42:08;26.10;36.80
11491;DHT22;5802;52.832;4.758;2023-04-12T14:44:35;26.10;36.80
11491;DHT22;5802;52.832;4.758;2023-04-12T14:47:03;26.10;36.70
11491;DHT22;5802;52.832;4.758;2023-04-12T14:49:29;26.20;36.60
11491;DHT22;5802;52.832;4.758;2023-04-12T14:51:56;26.20;36.60
11491;DHT22;5802;52.832;4.758;2023-04-12T14:54:23;26.20;36.50
11491;DHT22;5802;52.832;4.758;2023-04-12T14:56:49;26.20;36.40
11491;DHT22;5802;52.832;4.758;2023-04-12T14:59:16;26.20;36.30
11491;DHT22;5802;52.832;4.758;2023-04-12T15:01:43;26.30;36.30
11491;DHT22;5802;52.832;4.758;2023-04-12T15:04:12;26.30;36.80
11491;DHT22;5802;52.832;4.758;2023-04-12T15:06:38;26.30;36.10
11491;DHT22;5802;52.832;4.758;2023-04-12T15:09:07;26.30;36.10
11491;DHT22;5802;52.832;4.758;2023-04-12T15:11:34;26.40;36.00
11491;DHT22;5802;52.832;4.758;2023-04-12T15:14:01;26.30;36.00
11491;DHT22;5802;52.832;4.758;2023-04-12T15:16:28;26.30;36.00
11491;DHT22;5802;52.832;4.758;2023-04-12T15:18:55;26.30;36.00
11491;DHT22;5802;52.832;4.758;2023-04-12T15:21:23;26.30;36.00
11491;DHT22;5802;52.832;4.758;2023-04-12T15:23:51;26.30;35.90
11491;DHT22;5802;52.832;4.758;2023-04-12T15:26:18;26.30;36.00
11491;DHT22;5802;52.832;4.758;2023-04-12T15:28:45;26.30;36.00
11491;DHT22;5802;52.832;4.758;2023-04-12T15:31:11;26.30;36.20
11491;DHT22;5802;52.832;4.758;2023-04-12T15:33:39;26.30;36.20
11491;DHT22;5802;52.832;4.758;2023-04-12T15:36:06;26.20;36.10
11491;DHT22;5802;52.832;4.758;2023-04-12T15:38:39;26.20;36.10
11491;DHT22;5802;52.832;4.758;2023-04-12T15:41:06;26.20;36.10
11491;DHT22;5802;52.832;4.758;2023-04-12T15:43:34;26.20;36.10
11491;DHT22;5802;52.832;4.758;2023-04-12T15:46:00;26.20;36.10
11491;DHT22;5802;52.832;4.758;2023-04-12T15:48:27;26.20;36.20
11491;DHT22;5802;52.832;4.758;2023-04-12T15:50:55;26.10;36.20
11491;DHT22;5802;52.832;4.758;2023-04-12T15:53:23;26.10;36.20